This is the latest recevied weather packets stored in our database for station/object KJ6HT. If no packets are shown the sender has not sent any weather packets the latest 10 day(s).
| Time | Temp. | Humidity | Pressure | Rain* | Wind** | Luminosity | Snow |
|---|---|---|---|---|---|---|---|
| 1777593654 | 22.78° C | 56% | 1008.6 hPa | 0 mm | - | - | - |
| 1777592709 | 23.33° C | 54% | 1008.5 hPa | 0 mm | - | - | - |
| 1777591851 | 23.33° C | 54% | 1008.5 hPa | 0 mm | - | - | - |
| 1777590907 | 23.89° C | 53% | 1008.4 hPa | 0 mm | - | - | - |
| 1777590067 | 23.89° C | 52% | 1008.4 hPa | 0 mm | - | - | - |
| 1777589126 | 24.44° C | 49% | 1008.6 hPa | 0 mm | - | - | - |
| 1777588287 | 24.44° C | 51% | 1008.6 hPa | 0 mm | - | - | - |
| 1777587343 | 24.44° C | 50% | 1008.6 hPa | 0 mm | - | - | - |
| 1777586490 | 24.44° C | 50% | 1008.8 hPa | 0 mm | - | - | - |
| 1777585539 | 25° C | 50% | 1008.8 hPa | 0 mm | - | - | - |
| 1777584690 | 25.56° C | 48% | 1008.9 hPa | 0 mm | - | - | - |
| 1777583747 | 25.56° C | 47% | 1009.1 hPa | 0 mm | - | - | - |
| 1777582896 | 25° C | 48% | 1009 hPa | 0 mm | - | - | - |
| 1777581944 | 25° C | 47% | 1009.1 hPa | 0 mm | - | - | - |
| 1777581096 | 24.44° C | 47% | 1009.3 hPa | 0 mm | - | - | - |
| 1777580152 | 24.44° C | 47% | 1009.3 hPa | 0 mm | - | - | - |
| 1777579300 | 23.89° C | 47% | 1009.5 hPa | 0 mm | - | - | - |
| 1777578348 | 24.44° C | 48% | 1009.5 hPa | 0 mm | - | - | - |
| 1777577505 | 23.33° C | 50% | 1009.9 hPa | 0 mm | - | - | - |
| 1777576544 | 22.22° C | 52% | 1010.1 hPa | 0 mm | - | - | - |
| 1777575696 | 22.22° C | 51% | 1010.3 hPa | 0 mm | - | - | - |
| 1777574743 | 21.11° C | 54% | 1010.7 hPa | 0 mm | - | - | - |
| 1777573829 | 21.11° C | 55% | 1010.9 hPa | 0 mm | - | - | - |
| 1777572987 | 20° C | 55% | 1011 hPa | 0 mm | - | - | - |
| 1777572039 | 20° C | 58% | 1011.1 hPa | 0 mm | - | - | - |
* Rain latest hour (hover to see other rain measurements)
** Current wind speed in m/s (hover to see current wind gust speed)